createdAt,value
2018-05-17T00:00:37.894Z,27.90
2018-05-17T00:01:37.893Z,27.90
2018-05-17T00:02:37.896Z,30.20
2018-05-17T00:03:37.891Z,31.40
2018-05-17T00:04:37.891Z,26.80
2018-05-17T00:05:37.911Z,29.20
2018-05-17T00:06:37.893Z,28.30
2018-05-17T00:07:37.893Z,27.50
2018-05-17T00:08:37.893Z,29.10
2018-05-17T00:09:37.892Z,28.60
2018-05-17T00:10:37.890Z,28.30
2018-05-17T00:11:37.892Z,31.30
2018-05-17T00:12:37.893Z,28.60
2018-05-17T00:13:37.893Z,27.70
2018-05-17T00:14:37.897Z,28.20
2018-05-17T00:15:37.893Z,27.20
2018-05-17T00:16:37.890Z,29.40
2018-05-17T00:17:37.893Z,26.80
2018-05-17T00:18:37.892Z,28.50
2018-05-17T00:19:37.889Z,28.20
2018-05-17T00:20:37.891Z,27.10
2018-05-17T00:21:37.890Z,24.90
2018-05-17T00:22:37.894Z,27.60
2018-05-17T00:23:37.889Z,27.30
2018-05-17T00:24:37.891Z,28.60
2018-05-17T00:25:37.888Z,27.50
2018-05-17T00:26:38.074Z,25.40
2018-05-17T00:27:37.890Z,25.40
2018-05-17T00:28:37.891Z,26.00
2018-05-17T00:29:37.890Z,28.80
2018-05-17T00:30:37.894Z,25.80
2018-05-17T00:31:37.889Z,25.80
2018-05-17T00:32:37.889Z,31.10
2018-05-17T00:33:37.888Z,26.50
2018-05-17T00:34:37.888Z,29.00
2018-05-17T00:35:37.886Z,29.20
2018-05-17T00:36:37.887Z,27.20
2018-05-17T00:37:37.887Z,25.90
2018-05-17T00:38:37.892Z,28.50
2018-05-17T00:39:37.886Z,27.90
2018-05-17T00:40:37.888Z,33.10
2018-05-17T00:41:37.891Z,31.70
2018-05-17T00:42:37.887Z,29.20
2018-05-17T00:43:37.887Z,29.20
2018-05-17T00:44:37.886Z,29.70
2018-05-17T00:45:37.892Z,30.90
2018-05-17T00:46:37.889Z,31.00
2018-05-17T00:47:37.886Z,33.90
2018-05-17T00:48:37.889Z,31.50
2018-05-17T00:49:37.888Z,30.90
2018-05-17T00:50:37.886Z,37.50
2018-05-17T00:51:37.887Z,29.10
2018-05-17T00:52:37.885Z,30.00
2018-05-17T00:53:37.886Z,31.90
2018-05-17T00:54:37.887Z,31.70
2018-05-17T00:55:37.893Z,29.20
2018-05-17T00:56:37.885Z,31.50
2018-05-17T00:57:38.441Z,32.40
2018-05-17T00:58:37.887Z,31.80
2018-05-17T00:59:37.885Z,32.90
2018-05-17T01:00:37.886Z,37.30
2018-05-17T01:01:37.888Z,35.80
2018-05-17T01:02:37.886Z,40.20
2018-05-17T01:03:37.883Z,37.90
2018-05-17T01:04:37.889Z,36.80
2018-05-17T01:05:37.886Z,36.60
2018-05-17T01:06:37.896Z,42.30
2018-05-17T01:07:37.885Z,42.40
2018-05-17T01:08:37.885Z,41.60
2018-05-17T01:09:37.885Z,42.60
2018-05-17T01:10:37.887Z,45.30
2018-05-17T01:11:37.883Z,41.30
2018-05-17T01:12:37.884Z,46.90
2018-05-17T01:13:37.886Z,45.70
2018-05-17T01:14:37.902Z,48.50
2018-05-17T01:15:37.885Z,50.70
2018-05-17T01:16:37.892Z,49.40
2018-05-17T01:17:37.884Z,50.40
2018-05-17T01:18:37.893Z,48.80
2018-05-17T01:19:37.883Z,47.00
2018-05-17T01:20:37.885Z,49.10
2018-05-17T01:21:37.887Z,48.40
2018-05-17T01:22:37.887Z,55.40
2018-05-17T01:23:37.887Z,51.70
2018-05-17T01:24:37.884Z,48.10
2018-05-17T01:25:37.884Z,51.00
2018-05-17T01:26:37.884Z,46.80
2018-05-17T01:27:37.892Z,47.60
2018-05-17T01:28:38.883Z,53.70
2018-05-17T01:29:37.885Z,48.30
2018-05-17T01:30:37.884Z,59.20
2018-05-17T01:31:37.890Z,55.00
2018-05-17T01:32:37.884Z,50.30
2018-05-17T01:33:37.891Z,54.10
2018-05-17T01:34:37.886Z,51.70
2018-05-17T01:35:37.884Z,51.10
2018-05-17T01:36:37.884Z,53.60
2018-05-17T01:37:37.891Z,56.20
2018-05-17T01:38:37.889Z,51.40
2018-05-17T01:39:37.885Z,55.60
2018-05-17T01:40:37.884Z,59.30
2018-05-17T01:41:37.887Z,57.20
2018-05-17T01:42:37.886Z,62.50
2018-05-17T01:43:37.886Z,61.50
2018-05-17T01:44:37.888Z,63.90
2018-05-17T01:45:37.886Z,59.10
2018-05-17T01:46:37.888Z,59.60
2018-05-17T01:47:37.889Z,62.70
2018-05-17T01:48:37.887Z,66.80
2018-05-17T01:49:37.886Z,62.70
2018-05-17T01:50:37.888Z,64.10
2018-05-17T01:51:37.886Z,61.10
2018-05-17T01:52:37.887Z,62.70
2018-05-17T01:53:37.888Z,65.60
2018-05-17T01:54:37.889Z,64.80
2018-05-17T01:55:37.897Z,72.40
2018-05-17T01:56:37.889Z,64.90
2018-05-17T01:57:37.889Z,65.50
2018-05-17T01:58:37.889Z,67.80
2018-05-17T01:59:37.889Z,64.70
2018-05-17T02:00:37.893Z,68.40
2018-05-17T02:01:37.892Z,66.90
2018-05-17T02:02:37.894Z,67.00
2018-05-17T02:03:37.890Z,66.60
2018-05-17T02:04:37.892Z,64.20
2018-05-17T02:05:37.891Z,69.40
2018-05-17T02:06:37.893Z,69.10
2018-05-17T02:07:37.890Z,67.30
2018-05-17T02:08:37.891Z,68.50
2018-05-17T02:09:37.892Z,63.40
2018-05-17T02:10:37.893Z,68.50
2018-05-17T02:11:37.894Z,64.90
2018-05-17T02:12:37.891Z,66.60
2018-05-17T02:13:37.893Z,66.40
2018-05-17T02:14:37.893Z,70.60
2018-05-17T02:15:37.895Z,64.70
2018-05-17T02:16:37.894Z,66.40
2018-05-17T02:17:37.893Z,72.00
2018-05-17T02:18:37.895Z,69.00
2018-05-17T02:19:37.895Z,67.40
2018-05-17T02:20:37.895Z,67.60
2018-05-17T02:21:37.894Z,69.30
2018-05-17T02:22:37.896Z,74.40
2018-05-17T02:23:37.898Z,66.80
2018-05-17T02:24:37.902Z,69.00
2018-05-17T02:25:37.895Z,66.90
2018-05-17T02:26:37.898Z,68.80
2018-05-17T02:27:37.896Z,69.00
2018-05-17T02:28:37.898Z,67.30
2018-05-17T02:29:37.900Z,66.10
2018-05-17T02:30:37.902Z,67.90
2018-05-17T02:31:37.903Z,65.70
2018-05-17T02:32:37.899Z,66.10
2018-05-17T02:33:37.909Z,70.60
2018-05-17T02:34:37.900Z,68.10
2018-05-17T02:35:37.899Z,67.20
2018-05-17T02:36:37.899Z,69.40
2018-05-17T02:37:37.900Z,70.30
2018-05-17T02:38:37.902Z,68.70
2018-05-17T02:39:37.899Z,65.30
2018-05-17T02:40:37.910Z,72.70
2018-05-17T02:41:37.901Z,64.30
2018-05-17T02:42:37.901Z,66.50
2018-05-17T02:43:37.903Z,64.60
2018-05-17T02:44:37.902Z,64.00
2018-05-17T02:45:37.903Z,62.70
2018-05-17T02:46:37.906Z,65.00
2018-05-17T02:47:37.902Z,65.80
2018-05-17T02:48:37.903Z,62.80
2018-05-17T02:49:37.906Z,64.80
2018-05-17T02:50:37.904Z,62.80
2018-05-17T02:51:37.904Z,64.00
2018-05-17T02:52:37.902Z,65.90
2018-05-17T02:53:37.907Z,66.10
2018-05-17T02:54:37.908Z,70.60
2018-05-17T02:55:37.904Z,65.60
2018-05-17T02:56:37.905Z,68.20
2018-05-17T02:57:37.906Z,64.50
2018-05-17T02:58:37.910Z,69.80
2018-05-17T02:59:37.909Z,67.50
2018-05-17T03:00:38.047Z,72.40
2018-05-17T03:01:37.907Z,63.60
2018-05-17T03:02:37.906Z,69.90
2018-05-17T03:03:37.907Z,63.90
2018-05-17T03:04:37.907Z,64.90
2018-05-17T03:05:37.912Z,66.70
2018-05-17T03:06:37.911Z,65.80
2018-05-17T03:07:37.908Z,61.10
2018-05-17T03:08:37.910Z,69.70
2018-05-17T03:09:37.909Z,65.90
2018-05-17T03:10:37.910Z,66.30
2018-05-17T03:11:37.908Z,71.50
2018-05-17T03:12:37.910Z,64.00
2018-05-17T03:13:37.909Z,61.50
2018-05-17T03:14:37.911Z,66.70
2018-05-17T03:15:37.913Z,65.80
2018-05-17T03:16:37.909Z,62.90
2018-05-17T03:17:37.910Z,65.90
2018-05-17T03:18:37.911Z,64.70
2018-05-17T03:19:37.915Z,63.00
2018-05-17T03:20:37.911Z,63.10
2018-05-17T03:21:37.910Z,61.00
2018-05-17T03:22:37.965Z,59.70
2018-05-17T03:23:37.914Z,63.70
2018-05-17T03:24:37.910Z,65.30
2018-05-17T03:25:37.916Z,61.50
2018-05-17T03:26:37.916Z,62.50
2018-05-17T03:27:37.911Z,69.90
2018-05-17T03:28:37.912Z,60.60
2018-05-17T03:29:37.914Z,65.60
2018-05-17T03:30:37.915Z,62.50
2018-05-17T03:31:38.382Z,60.20
2018-05-17T03:32:37.914Z,56.20
2018-05-17T03:33:37.915Z,61.80
2018-05-17T03:34:37.914Z,58.90
2018-05-17T03:35:37.912Z,62.20
2018-05-17T03:36:37.913Z,67.40
2018-05-17T03:37:37.916Z,57.50
2018-05-17T03:38:37.915Z,58.50
2018-05-17T03:39:37.914Z,55.70
2018-05-17T03:40:37.915Z,55.30
2018-05-17T03:41:37.917Z,57.20
2018-05-17T03:42:37.916Z,56.20
2018-05-17T03:43:37.915Z,59.70
2018-05-17T03:44:37.916Z,56.80
2018-05-17T03:45:37.916Z,53.90
2018-05-17T03:46:37.916Z,51.50
2018-05-17T03:47:37.916Z,51.70
2018-05-17T03:48:37.919Z,60.50
2018-05-17T03:49:37.919Z,57.40
2018-05-17T03:50:37.920Z,57.80
2018-05-17T03:51:37.920Z,48.80
2018-05-17T03:52:37.916Z,50.20
2018-05-17T03:53:37.918Z,64.00
2018-05-17T03:54:37.917Z,51.70
2018-05-17T03:55:37.916Z,56.80
2018-05-17T03:56:37.917Z,51.70
2018-05-17T03:57:37.917Z,51.90
2018-05-17T03:58:37.916Z,59.80
2018-05-17T03:59:37.915Z,55.80
2018-05-17T04:00:37.916Z,49.10
2018-05-17T04:01:37.915Z,49.70
2018-05-17T04:02:38.842Z,50.60
2018-05-17T04:03:37.915Z,45.70
2018-05-17T04:04:37.918Z,46.90
2018-05-17T04:05:37.919Z,48.20
2018-05-17T04:06:37.917Z,50.30
2018-05-17T04:07:37.917Z,54.40
2018-05-17T04:08:37.932Z,55.40
2018-05-17T04:09:37.918Z,50.40
2018-05-17T04:10:37.916Z,47.50
2018-05-17T04:11:37.916Z,48.40
2018-05-17T04:12:37.915Z,47.10
2018-05-17T04:13:37.915Z,50.00
2018-05-17T04:14:37.917Z,52.60
2018-05-17T04:15:37.915Z,44.70
2018-05-17T04:16:37.920Z,47.90
2018-05-17T04:17:37.917Z,50.60
2018-05-17T04:18:37.916Z,44.00
2018-05-17T04:19:37.915Z,46.50
2018-05-17T04:20:37.916Z,42.10
2018-05-17T04:21:37.917Z,47.30
2018-05-17T04:22:37.916Z,48.60
2018-05-17T04:23:37.915Z,50.90
2018-05-17T04:24:37.915Z,45.80
2018-05-17T04:25:37.984Z,55.60
2018-05-17T04:26:37.915Z,47.90
2018-05-17T04:27:37.915Z,51.50
2018-05-17T04:28:37.920Z,44.80
2018-05-17T04:29:37.916Z,59.90
2018-05-17T04:30:37.914Z,49.90
2018-05-17T04:31:37.914Z,44.00
2018-05-17T04:32:37.919Z,45.80
2018-05-17T04:33:37.917Z,45.70
2018-05-17T04:34:37.914Z,49.10
2018-05-17T04:35:37.916Z,50.50
2018-05-17T04:36:37.920Z,47.10
2018-05-17T04:37:37.914Z,48.00
2018-05-17T04:38:37.914Z,43.50
2018-05-17T04:39:37.914Z,51.30
2018-05-17T04:40:37.912Z,44.10
2018-05-17T04:41:37.913Z,41.40
2018-05-17T04:42:37.915Z,46.60
2018-05-17T04:43:37.915Z,41.40
2018-05-17T04:44:37.915Z,49.70
2018-05-17T04:45:37.917Z,42.40
2018-05-17T04:46:37.933Z,47.30
2018-05-17T04:47:37.914Z,44.70
2018-05-17T04:48:37.914Z,42.90
2018-05-17T04:49:38.360Z,47.40
2018-05-17T04:50:37.917Z,43.00
2018-05-17T04:51:37.912Z,44.50
2018-05-17T04:52:37.913Z,46.70
2018-05-17T04:53:37.915Z,42.60
2018-05-17T04:54:37.919Z,45.70
2018-05-17T04:55:37.916Z,42.80
2018-05-17T04:56:37.916Z,42.50
2018-05-17T04:57:37.915Z,39.90
2018-05-17T04:58:37.920Z,39.90
2018-05-17T04:59:37.916Z,44.40
2018-05-17T05:00:37.925Z,45.50
2018-05-17T05:01:37.914Z,44.10
2018-05-17T05:02:37.923Z,44.30
2018-05-17T05:03:37.918Z,43.30
2018-05-17T05:04:37.917Z,47.80
2018-05-17T05:05:37.920Z,40.90
2018-05-17T05:06:37.922Z,41.20
2018-05-17T05:07:37.916Z,40.60
2018-05-17T05:08:37.917Z,43.10
2018-05-17T05:09:37.917Z,47.10
2018-05-17T05:10:37.919Z,43.00
2018-05-17T05:11:37.916Z,48.80
2018-05-17T05:12:37.917Z,42.20
2018-05-17T05:13:37.919Z,45.50
2018-05-17T05:14:37.917Z,54.20
2018-05-17T05:15:37.920Z,50.40
2018-05-17T05:16:37.921Z,43.80
2018-05-17T05:17:37.920Z,42.00
2018-05-17T05:18:37.919Z,42.90
2018-05-17T05:19:37.919Z,40.70
2018-05-17T05:20:37.918Z,46.10
2018-05-17T05:21:37.919Z,47.00
2018-05-17T05:22:37.921Z,45.50
2018-05-17T05:23:37.920Z,37.90
2018-05-17T05:24:37.918Z,44.70
2018-05-17T05:25:37.922Z,44.70
2018-05-17T05:26:37.923Z,40.80
2018-05-17T05:27:37.920Z,43.40
2018-05-17T05:28:37.918Z,43.20
2018-05-17T05:29:37.924Z,49.20
2018-05-17T05:30:37.920Z,46.70
2018-05-17T05:31:38.000Z,42.40
2018-05-17T05:32:37.918Z,47.60
2018-05-17T05:33:37.919Z,43.80
2018-05-17T05:34:38.087Z,45.70
2018-05-17T05:35:37.917Z,39.50
2018-05-17T05:36:37.921Z,42.30
2018-05-17T05:37:37.968Z,47.20
2018-05-17T05:38:37.919Z,41.40
2018-05-17T05:39:37.918Z,48.90
2018-05-17T05:40:37.931Z,50.90
2018-05-17T05:41:37.919Z,45.10
2018-05-17T05:42:37.921Z,42.50
2018-05-17T05:43:37.919Z,37.10
2018-05-17T05:44:37.918Z,48.40
2018-05-17T05:45:37.926Z,39.00
2018-05-17T05:46:38.003Z,41.10
2018-05-17T05:47:37.918Z,33.10
2018-05-17T05:48:37.925Z,43.30
2018-05-17T05:49:37.947Z,42.60
2018-05-17T05:50:37.925Z,46.30
2018-05-17T05:51:37.916Z,49.20
2018-05-17T05:52:37.923Z,37.40
2018-05-17T05:53:37.924Z,43.00
2018-05-17T05:54:37.921Z,44.80
2018-05-17T05:55:37.921Z,64.90
2018-05-17T05:56:37.925Z,43.40
2018-05-17T05:57:40.812Z,37.50
2018-05-17T05:58:37.919Z,41.80
2018-05-17T05:59:37.918Z,42.00
2018-05-17T06:00:37.919Z,40.50
2018-05-17T06:01:37.987Z,34.30
2018-05-17T06:02:37.934Z,39.80
2018-05-17T06:03:37.920Z,45.00
2018-05-17T06:04:37.921Z,41.50
2018-05-17T06:05:38.512Z,45.30
2018-05-17T06:06:37.921Z,47.60
2018-05-17T06:07:37.923Z,41.70
2018-05-17T06:08:37.930Z,35.70
2018-05-17T06:09:37.921Z,39.60
2018-05-17T06:10:37.921Z,39.00
2018-05-17T06:11:37.930Z,38.90
2018-05-17T06:12:37.920Z,38.70
2018-05-17T06:13:37.931Z,41.50
2018-05-17T06:14:37.994Z,40.60
2018-05-17T06:15:37.921Z,49.00
2018-05-17T06:16:37.921Z,37.30
2018-05-17T06:17:37.926Z,34.90
2018-05-17T06:18:37.936Z,35.50
2018-05-17T06:19:37.923Z,30.60
2018-05-17T06:20:37.925Z,37.90
2018-05-17T06:21:37.925Z,35.60
2018-05-17T06:22:37.925Z,43.90
2018-05-17T06:23:37.924Z,38.00
2018-05-17T06:24:37.927Z,35.60
2018-05-17T06:25:37.928Z,37.50
2018-05-17T06:26:37.927Z,41.00
2018-05-17T06:27:37.928Z,41.40
2018-05-17T06:28:37.928Z,41.90
2018-05-17T06:29:37.930Z,37.40
2018-05-17T06:30:37.931Z,43.30
2018-05-17T06:31:37.932Z,36.60
2018-05-17T06:32:37.946Z,34.20
2018-05-17T06:33:37.931Z,37.50
2018-05-17T06:34:37.931Z,41.50
2018-05-17T06:35:37.931Z,40.30
2018-05-17T06:36:38.932Z,39.50
2018-05-17T06:37:37.937Z,33.80
2018-05-17T06:38:37.945Z,47.10
2018-05-17T06:39:37.939Z,40.00
2018-05-17T06:40:37.989Z,38.50
2018-05-17T06:41:37.944Z,35.30
2018-05-17T06:42:37.936Z,51.80
2018-05-17T06:43:38.036Z,34.80
2018-05-17T06:44:37.992Z,40.40
2018-05-17T06:45:37.942Z,37.30
2018-05-17T06:46:37.939Z,37.90
2018-05-17T06:47:37.943Z,35.30
2018-05-17T06:48:37.940Z,67.20
2018-05-17T06:49:37.942Z,35.20
2018-05-17T06:50:37.942Z,33.50
2018-05-17T06:51:37.955Z,34.40
2018-05-17T06:52:37.943Z,37.80
2018-05-17T06:53:37.978Z,44.90
2018-05-17T06:54:37.947Z,35.20
2018-05-17T06:55:37.952Z,38.30
2018-05-17T06:56:37.949Z,41.40
2018-05-17T06:57:37.954Z,112.10
2018-05-17T06:58:37.948Z,68.90
2018-05-17T06:59:37.974Z,259.40
2018-05-17T07:00:37.997Z,41.50
2018-05-17T07:01:37.950Z,35.40
2018-05-17T07:02:37.951Z,35.30
2018-05-17T07:03:37.955Z,78.80
2018-05-17T07:04:37.964Z,38.70
2018-05-17T07:05:37.957Z,45.60
2018-05-17T07:06:37.957Z,35.50
2018-05-17T07:07:38.029Z,32.80
2018-05-17T07:08:38.049Z,39.20
2018-05-17T07:09:38.040Z,38.80
2018-05-17T07:10:37.965Z,43.00
2018-05-17T07:11:37.960Z,37.20
2018-05-17T07:12:38.006Z,53.10
2018-05-17T07:13:37.962Z,37.80
2018-05-17T07:14:38.130Z,34.10
2018-05-17T07:15:38.145Z,42.60
2018-05-17T07:16:38.112Z,33.50
2018-05-17T07:17:38.046Z,34.80
2018-05-17T07:18:38.358Z,85.20
2018-05-17T07:19:37.967Z,35.30
2018-05-17T07:20:37.967Z,36.30
2018-05-17T07:21:37.991Z,41.30
2018-05-17T07:22:38.000Z,40.40
2018-05-17T07:23:37.973Z,36.70
2018-05-17T07:24:37.971Z,37.60
2018-05-17T07:25:37.972Z,36.30
2018-05-17T07:26:37.975Z,40.00
2018-05-17T07:27:37.976Z,39.90
2018-05-17T07:28:37.976Z,29.40
2018-05-17T07:29:37.975Z,40.10
2018-05-17T07:30:37.978Z,45.30
2018-05-17T07:31:37.977Z,59.20
2018-05-17T07:32:37.984Z,36.50
2018-05-17T07:33:37.981Z,34.90
2018-05-17T07:34:37.983Z,38.70
2018-05-17T07:35:37.983Z,36.70
2018-05-17T07:36:37.983Z,37.00
2018-05-17T07:37:37.983Z,34.20
2018-05-17T07:38:37.985Z,39.20
2018-05-17T07:39:37.984Z,37.90
2018-05-17T07:40:38.029Z,44.20
2018-05-17T07:41:37.986Z,35.50
2018-05-17T07:42:37.990Z,27.90
2018-05-17T07:43:37.987Z,35.30
2018-05-17T07:44:37.987Z,34.50
2018-05-17T07:45:37.990Z,33.90
2018-05-17T07:46:38.085Z,42.90
2018-05-17T07:47:37.990Z,33.90
2018-05-17T07:48:37.998Z,43.20
2018-05-17T07:49:37.996Z,33.40
2018-05-17T07:50:37.994Z,37.10
2018-05-17T07:51:37.994Z,33.80
2018-05-17T07:52:37.995Z,38.70
2018-05-17T07:53:37.997Z,35.80
2018-05-17T07:54:38.002Z,35.20
2018-05-17T07:55:38.077Z,32.70
2018-05-17T07:56:38.004Z,33.30
2018-05-17T07:57:38.000Z,36.00
2018-05-17T07:58:38.000Z,38.30
2018-05-17T07:59:38.002Z,33.50
2018-05-17T08:00:38.067Z,40.30
2018-05-17T08:01:38.004Z,39.70
2018-05-17T08:02:38.121Z,31.20
2018-05-17T08:03:38.010Z,32.90
2018-05-17T08:04:38.076Z,34.20
2018-05-17T08:05:38.444Z,38.10
2018-05-17T08:06:38.007Z,40.90
2018-05-17T08:07:38.013Z,28.40
2018-05-17T08:08:38.091Z,44.40
2018-05-17T08:09:38.015Z,37.20
2018-05-17T08:10:38.013Z,36.20
2018-05-17T08:11:38.014Z,42.60
2018-05-17T08:12:38.013Z,36.50
2018-05-17T08:13:38.013Z,35.50
2018-05-17T08:14:38.014Z,36.00
2018-05-17T08:15:38.078Z,29.50
2018-05-17T08:16:38.014Z,34.70
2018-05-17T08:17:38.018Z,34.20
2018-05-17T08:18:38.016Z,33.10
2018-05-17T08:19:38.017Z,30.10
2018-05-17T08:20:38.019Z,31.50
2018-05-17T08:21:38.019Z,33.00
2018-05-17T08:22:38.023Z,30.70
2018-05-17T08:23:38.022Z,26.50
2018-05-17T08:24:38.032Z,35.20
2018-05-17T08:25:38.032Z,30.10
2018-05-17T08:26:38.025Z,35.50
2018-05-17T08:27:38.025Z,38.90
2018-05-17T08:28:38.026Z,34.60
2018-05-17T08:29:38.030Z,32.20
2018-05-17T08:30:38.027Z,69.40
2018-05-17T08:31:38.027Z,32.50
2018-05-17T08:32:38.028Z,31.90
2018-05-17T08:33:38.030Z,33.90
2018-05-17T08:34:38.030Z,34.10
2018-05-17T08:35:38.030Z,28.60
2018-05-17T08:36:38.175Z,35.10
2018-05-17T08:37:38.033Z,51.20
2018-05-17T08:38:38.036Z,32.00
2018-05-17T08:39:38.523Z,37.80
2018-05-17T08:40:38.037Z,34.90
2018-05-17T08:41:38.035Z,34.30
2018-05-17T08:42:38.109Z,28.70
2018-05-17T08:43:38.038Z,34.30
2018-05-17T08:44:38.044Z,31.90
2018-05-17T08:45:38.116Z,37.10
2018-05-17T08:46:38.044Z,27.80
2018-05-17T08:47:38.043Z,31.70
2018-05-17T08:48:38.093Z,32.00
2018-05-17T08:49:38.044Z,31.50
2018-05-17T08:50:38.046Z,35.50
2018-05-17T08:51:38.052Z,31.80
2018-05-17T08:52:38.047Z,27.50
2018-05-17T08:53:38.060Z,34.70
2018-05-17T08:54:38.048Z,30.30
2018-05-17T08:55:38.052Z,26.90
2018-05-17T08:56:38.053Z,34.70
2018-05-17T08:57:38.051Z,28.70
2018-05-17T08:58:38.053Z,36.80
2018-05-17T08:59:38.143Z,36.60
2018-05-17T09:00:38.057Z,29.70
2018-05-17T09:01:38.071Z,29.90
2018-05-17T09:02:38.058Z,28.90
2018-05-17T09:03:38.057Z,27.10
2018-05-17T09:04:38.065Z,32.10
2018-05-17T09:05:38.059Z,29.30
2018-05-17T09:06:38.061Z,37.30
2018-05-17T09:07:38.062Z,37.40
2018-05-17T09:08:38.064Z,34.30
2018-05-17T09:09:38.070Z,34.50
2018-05-17T09:10:38.919Z,31.30
2018-05-17T09:11:38.066Z,29.30
2018-05-17T09:12:38.065Z,34.00
2018-05-17T09:13:38.163Z,26.50
2018-05-17T09:14:38.069Z,35.70
2018-05-17T09:15:38.069Z,33.40
2018-05-17T09:16:38.075Z,26.50
2018-05-17T09:17:38.073Z,31.60
2018-05-17T09:18:38.076Z,27.40
2018-05-17T09:19:38.074Z,31.60
2018-05-17T09:20:38.077Z,27.70
2018-05-17T09:21:38.090Z,34.30
2018-05-17T09:22:38.081Z,33.80
2018-05-17T09:23:38.081Z,36.00
2018-05-17T09:24:38.082Z,28.10
2018-05-17T09:25:38.083Z,32.00
2018-05-17T09:26:38.086Z,27.80
2018-05-17T09:27:38.085Z,32.30
2018-05-17T09:28:38.087Z,36.60
2018-05-17T09:29:38.090Z,24.60
2018-05-17T09:30:38.099Z,31.00
2018-05-17T09:31:38.095Z,33.40
2018-05-17T09:32:38.114Z,33.50
2018-05-17T09:33:38.123Z,31.50
2018-05-17T09:34:38.098Z,29.90
2018-05-17T09:35:38.109Z,33.00
2018-05-17T09:36:38.101Z,27.30
2018-05-17T09:37:38.102Z,31.00
2018-05-17T09:38:38.105Z,75.40
2018-05-17T09:39:38.105Z,34.40
2018-05-17T09:40:38.119Z,30.80
2018-05-17T09:41:38.111Z,30.30
2018-05-17T09:42:38.121Z,32.50
2018-05-17T09:43:38.115Z,28.60
2018-05-17T09:44:38.138Z,28.10
2018-05-17T09:45:38.121Z,27.90
2018-05-17T09:46:38.120Z,33.90
2018-05-17T09:47:38.174Z,31.30
2018-05-17T09:48:38.126Z,33.10
2018-05-17T09:49:38.128Z,31.30
2018-05-17T09:50:38.144Z,33.20
2018-05-17T09:51:38.130Z,26.30
2018-05-17T09:52:38.134Z,25.00
2018-05-17T09:53:38.133Z,24.70
2018-05-17T09:54:38.136Z,34.10
2018-05-17T09:55:38.138Z,31.00
2018-05-17T09:56:38.147Z,36.90
2018-05-17T09:57:38.143Z,36.70
2018-05-17T09:58:38.145Z,28.30
2018-05-17T09:59:38.151Z,50.50
2018-05-17T10:00:38.165Z,44.50
2018-05-17T10:01:38.147Z,37.00
2018-05-17T10:02:38.545Z,37.40
2018-05-17T10:03:38.332Z,31.20
2018-05-17T10:04:38.154Z,31.90
2018-05-17T10:05:38.157Z,28.40
2018-05-17T10:06:38.163Z,27.50
2018-05-17T10:07:38.207Z,31.90
2018-05-17T10:08:38.163Z,29.20
2018-05-17T10:09:38.165Z,38.10
2018-05-17T10:10:38.268Z,30.00
2018-05-17T10:11:38.167Z,29.40
2018-05-17T10:12:38.169Z,30.80
2018-05-17T10:13:38.172Z,29.30
2018-05-17T10:14:38.322Z,27.10
2018-05-17T10:15:38.267Z,28.10
2018-05-17T10:16:38.186Z,34.00
2018-05-17T10:17:38.207Z,33.10
2018-05-17T10:18:38.185Z,29.80
2018-05-17T10:19:38.189Z,34.50
2018-05-17T10:20:38.190Z,29.00
2018-05-17T10:21:38.227Z,25.90
2018-05-17T10:22:38.207Z,33.30
2018-05-17T10:23:38.196Z,32.80
2018-05-17T10:24:38.198Z,27.90
2018-05-17T10:25:38.203Z,29.80
2018-05-17T10:26:38.206Z,30.40
2018-05-17T10:27:38.207Z,29.10
2018-05-17T10:28:38.210Z,31.40
2018-05-17T10:29:38.213Z,24.70
2018-05-17T10:30:38.224Z,24.10
2018-05-17T10:31:38.216Z,25.20
2018-05-17T10:32:38.220Z,32.80
2018-05-17T10:33:38.228Z,26.10
2018-05-17T10:34:38.231Z,29.30
2018-05-17T10:35:38.229Z,29.30
2018-05-17T10:36:38.235Z,27.70
2018-05-17T10:37:38.232Z,32.20
2018-05-17T10:38:38.247Z,30.70
2018-05-17T10:39:38.237Z,30.90
2018-05-17T10:40:38.241Z,29.90
2018-05-17T10:41:38.245Z,24.60
2018-05-17T10:42:38.247Z,23.50
2018-05-17T10:43:38.249Z,28.90
2018-05-17T10:44:38.252Z,35.70
2018-05-17T10:45:38.256Z,26.00
2018-05-17T10:46:38.260Z,26.50
2018-05-17T10:47:38.265Z,25.80
2018-05-17T10:48:38.268Z,27.60
2018-05-17T10:49:38.270Z,30.80
2018-05-17T10:50:38.274Z,29.50
2018-05-17T10:51:38.306Z,29.50
2018-05-17T10:52:38.282Z,55.50
2018-05-17T10:53:38.285Z,31.60
2018-05-17T10:54:38.333Z,34.60
2018-05-17T10:55:38.293Z,25.70
2018-05-17T10:56:38.300Z,41.30
2018-05-17T10:57:38.303Z,27.50
2018-05-17T10:58:38.307Z,27.90
2018-05-17T10:59:38.309Z,26.20
2018-05-17T11:00:38.313Z,31.10
2018-05-17T11:01:38.334Z,31.70
2018-05-17T11:02:38.353Z,27.40
2018-05-17T11:03:38.325Z,28.60
2018-05-17T11:04:38.330Z,27.90
2018-05-17T11:05:38.341Z,29.60
2018-05-17T11:06:38.342Z,29.40
2018-05-17T11:07:38.344Z,31.80
2018-05-17T11:08:38.348Z,25.90
2018-05-17T11:09:38.356Z,38.00
2018-05-17T11:10:38.366Z,32.70
2018-05-17T11:11:38.672Z,32.00
2018-05-17T11:12:38.460Z,25.60
2018-05-17T11:13:38.578Z,29.20
2018-05-17T11:14:38.382Z,32.00
2018-05-17T11:15:38.385Z,30.80
2018-05-17T11:16:38.408Z,34.60
2018-05-17T11:17:38.397Z,29.50
2018-05-17T11:18:38.406Z,24.50
2018-05-17T11:19:38.411Z,49.60
2018-05-17T11:20:38.414Z,34.30
2018-05-17T11:21:38.418Z,28.40
2018-05-17T11:22:38.425Z,29.00
2018-05-17T11:23:38.431Z,43.80
2018-05-17T11:24:38.438Z,32.30
2018-05-17T11:25:38.443Z,24.50
2018-05-17T11:26:38.481Z,24.30
2018-05-17T11:27:38.478Z,25.10
2018-05-17T11:28:38.462Z,28.40
2018-05-17T11:29:38.470Z,27.10
2018-05-17T11:30:38.478Z,30.40
2018-05-17T11:31:38.483Z,25.60
2018-05-17T11:32:38.491Z,31.70
2018-05-17T11:33:38.499Z,32.20
2018-05-17T11:34:38.548Z,36.60
2018-05-17T11:35:38.559Z,33.30
2018-05-17T11:36:38.523Z,24.80
2018-05-17T11:37:38.530Z,33.40
2018-05-17T11:38:38.600Z,35.40
2018-05-17T11:39:38.537Z,23.40
2018-05-17T11:40:38.552Z,29.10
2018-05-17T11:41:38.551Z,42.30
2018-05-17T11:42:38.563Z,31.80
2018-05-17T11:43:38.572Z,53.60
2018-05-17T11:44:39.041Z,29.50
2018-05-17T11:45:38.577Z,23.80
2018-05-17T11:46:38.584Z,29.80
2018-05-17T11:47:38.598Z,27.30
2018-05-17T11:48:38.615Z,32.10
2018-05-17T11:49:38.606Z,23.00
2018-05-17T11:50:38.615Z,28.70
2018-05-17T11:51:38.619Z,35.00
2018-05-17T11:52:38.641Z,28.20
2018-05-17T11:53:38.631Z,63.00
2018-05-17T11:54:38.639Z,31.30
2018-05-17T11:55:38.651Z,26.00
2018-05-17T11:56:38.658Z,29.40
2018-05-17T11:57:38.662Z,28.90
2018-05-17T11:58:38.670Z,25.10
2018-05-17T11:59:38.676Z,23.80
2018-05-17T12:00:40.318Z,37.40
2018-05-17T12:01:38.721Z,35.00
2018-05-17T12:02:38.712Z,32.20
2018-05-17T12:03:38.714Z,25.50
2018-05-17T12:04:38.730Z,23.40
2018-05-17T12:05:38.727Z,30.50
2018-05-17T12:06:38.750Z,36.00
2018-05-17T12:07:38.795Z,29.30
2018-05-17T12:08:38.754Z,21.40
2018-05-17T12:09:38.763Z,26.10
2018-05-17T12:10:38.881Z,25.60
2018-05-17T12:11:38.786Z,24.70
2018-05-17T12:12:38.791Z,23.40
2018-05-17T12:13:38.814Z,23.90
2018-05-17T12:14:38.810Z,25.40
2018-05-17T12:15:39.514Z,26.90
2018-05-17T12:16:38.830Z,27.80
2018-05-17T12:17:40.111Z,26.60
2018-05-17T12:18:38.851Z,26.00
2018-05-17T12:19:38.860Z,24.00
2018-05-17T12:20:38.872Z,27.80
2018-05-17T12:21:38.889Z,30.50
2018-05-17T12:22:39.225Z,29.40
2018-05-17T12:23:38.901Z,31.10
2018-05-17T12:24:38.920Z,30.80
2018-05-17T12:25:38.921Z,28.60
2018-05-17T12:26:38.932Z,25.40
2018-05-17T12:27:38.943Z,32.80
2018-05-17T12:28:38.954Z,28.50
2018-05-17T12:29:38.993Z,24.20
2018-05-17T12:30:38.975Z,29.60
2018-05-17T12:31:38.994Z,26.60
2018-05-17T12:32:39.002Z,30.50
2018-05-17T12:33:39.010Z,26.40
2018-05-17T12:34:39.037Z,24.60
2018-05-17T12:35:39.079Z,32.50
2018-05-17T12:36:39.044Z,27.00
2018-05-17T12:37:39.053Z,33.40
2018-05-17T12:38:39.062Z,33.40
2018-05-17T12:39:39.072Z,28.90
2018-05-17T12:40:39.093Z,32.00
2018-05-17T12:41:39.090Z,31.10
2018-05-17T12:42:39.117Z,31.50
2018-05-17T12:43:39.118Z,29.70
2018-05-17T12:44:39.132Z,28.10
2018-05-17T12:45:39.138Z,27.60
2018-05-17T12:46:39.975Z,29.10
2018-05-17T12:47:39.150Z,26.60
2018-05-17T12:48:39.165Z,30.70
2018-05-17T12:49:39.196Z,27.20
2018-05-17T12:50:41.853Z,26.10
2018-05-17T12:51:39.305Z,27.50
2018-05-17T12:52:39.189Z,26.70